Saint Louis, Missouri
Current Conditions -  °F | °C
As of 11:53 AM on Saturday 25 Oct 2014 (Local Time) from KCPS Reporting Station
Clear Clear  
Wind Chill: 75°   Ceiling: Unl
Heat Index: 75°   Visibility: 10mi
Dew Point: 63°   Wind: 6mph
Humidity: 66%   Direction: NA
Pressure: 30.04"   Gusts: NA
Location:  38.63°N, 90.24°W
Report Text: KCPS 251653Z VRB05KT 10SM CLR 24/17 A3004 RMK AO2 SLP169 T02390172 $
Loading
Personal Weather Stations






























Interactive Weather Map
Tropical Storm Tracking
New forecast layout! Learn more

10-Day Weather Forecast

Advertisements
Track Severe Weather on mobile